Bison, SD

4:51 PM MST on November 22, 2014 (GMT -0700)
Hettinger Municipal | Change Station
CLOSE
Current Station
Airport
Location: Hettinger,
Elevation: 2703 ft
Nearby Weather Stations
Active Advisory: High Wind Watch

Elev 2703 ft 46.01 °N, 102.66 °W | Updated 58 minutes ago

Mostly Cloudy
Mostly Cloudy
38 °F
Feels Like 33 °F
N
7
Wind Variable Wind from West

Today
High -- | Low -- °F
--% Chance of Precip.
Yesterday
High -- | Low -- °F
Precip. -- in
6:58 AM 4:13 PM
New Moon, 0% visible
Pressure 29.44 in
Visibility 10.0 miles
Clouds Few 10000 ft
Windchill 33 °F
Dew Point 33 °F
Humidity 83%
Rainfall 0.00 in
Snow Depth Not available.
UV 0 out of 12
Pollen .10 out of 12
Air Quality Not available.
Flu Activity Not available.
METAR KHEI 222253Z AUTO 28006KT 10SM FEW100 03/01 A2937 RMK AO2 SLP970 T00330006

More Conditions Fewer Conditions

Pressure 29.44 in
Visibility 10.0 miles
Clouds Few 10000 ft
Windchill 33 °F
Dew Point 33 °F
Humidity 83%
Rainfall 0.00 in
Snow Depth Not available.
UV 0 out of 12
Pollen .10 out of 12
Air Quality Not available.
Flu Activity Not available.
METAR KHEI 222253Z AUTO 28006KT 10SM FEW100 03/01 A2937 RMK AO2 SLP970 T00330006

More Conditions Fewer Conditions

10-Day Weather Forecast

Almanac

Astronomy

Nov. 22, 2014 Rise Set
Actual Time
Civil Twilight
Nautical Twilight
Astronomical Twilight
Moon
Length of Visible Light
Length of Day
Tomorrow will be .
, % of the Moon is Illuminated

Today's Extremes

State Highs State Lows

Community

WunderPhotos

Upload Photos

1,772,928 photos uploaded!

WunderBlogs® & News

Nearby

Air Quality

  Air Quality AQ Index Pollutant
Not available.

Snow Depth

Station Depth Elevation

Earthquake Activity

City Distance Mag. Time & Date
Minimum magnitude displayed is 2.5.

Coastal Water Temperatures

Place Temperature

Nearby Weather Stations